sensor_id;sensor_type;location;lat;lon;timestamp;P1;durP1;ratioP1;P2;durP2;ratioP2
72601;SDS011;60644;55.858;37.390;2023-05-07T00:00:44;6.70;;;1.95;;
72601;SDS011;60644;55.858;37.390;2023-05-07T00:03:10;7.33;;;2.27;;
72601;SDS011;60644;55.858;37.390;2023-05-07T00:05:36;8.90;;;2.03;;
72601;SDS011;60644;55.858;37.390;2023-05-07T00:08:03;5.70;;;1.65;;
72601;SDS011;60644;55.858;37.390;2023-05-07T00:10:28;5.87;;;2.07;;
72601;SDS011;60644;55.858;37.390;2023-05-07T00:12:54;7.15;;;2.20;;
72601;SDS011;60644;55.858;37.390;2023-05-07T00:15:20;6.57;;;2.40;;
72601;SDS011;60644;55.858;37.390;2023-05-07T00:17:45;6.10;;;2.00;;
72601;SDS011;60644;55.858;37.390;2023-05-07T00:20:11;5.37;;;1.93;;
72601;SDS011;60644;55.858;37.390;2023-05-07T00:22:37;6.25;;;2.00;;
72601;SDS011;60644;55.858;37.390;2023-05-07T00:25:03;7.53;;;1.93;;
72601;SDS011;60644;55.858;37.390;2023-05-07T00:27:32;5.10;;;1.90;;
72601;SDS011;60644;55.858;37.390;2023-05-07T00:29:57;6.05;;;2.22;;
72601;SDS011;60644;55.858;37.390;2023-05-07T00:32:23;9.60;;;2.63;;
72601;SDS011;60644;55.858;37.390;2023-05-07T00:34:49;5.93;;;2.37;;
72601;SDS011;60644;55.858;37.390;2023-05-07T00:37:16;13.45;;;2.40;;
72601;SDS011;60644;55.858;37.390;2023-05-07T00:39:42;7.25;;;3.38;;
72601;SDS011;60644;55.858;37.390;2023-05-07T00:42:07;9.17;;;2.83;;
72601;SDS011;60644;55.858;37.390;2023-05-07T00:44:33;5.55;;;2.15;;
72601;SDS011;60644;55.858;37.390;2023-05-07T00:46:59;6.07;;;1.80;;
72601;SDS011;60644;55.858;37.390;2023-05-07T00:49:35;5.28;;;1.58;;
72601;SDS011;60644;55.858;37.390;2023-05-07T00:52:02;5.85;;;1.80;;
72601;SDS011;60644;55.858;37.390;2023-05-07T00:54:28;6.67;;;1.97;;
72601;SDS011;60644;55.858;37.390;2023-05-07T00:56:54;5.82;;;1.80;;
72601;SDS011;60644;55.858;37.390;2023-05-07T00:59:20;5.22;;;1.90;;
72601;SDS011;60644;55.858;37.390;2023-05-07T01:01:46;6.40;;;1.93;;
72601;SDS011;60644;55.858;37.390;2023-05-07T01:04:11;7.18;;;1.92;;
72601;SDS011;60644;55.858;37.390;2023-05-07T01:06:37;6.20;;;2.97;;
72601;SDS011;60644;55.858;37.390;2023-05-07T01:09:03;6.47;;;2.15;;
72601;SDS011;60644;55.858;37.390;2023-05-07T01:11:30;7.38;;;2.33;;
72601;SDS011;60644;55.858;37.390;2023-05-07T01:13:55;6.00;;;1.90;;
72601;SDS011;60644;55.858;37.390;2023-05-07T01:16:22;6.50;;;1.92;;
72601;SDS011;60644;55.858;37.390;2023-05-07T01:18:47;7.53;;;2.47;;
72601;SDS011;60644;55.858;37.390;2023-05-07T01:21:14;5.97;;;1.98;;
72601;SDS011;60644;55.858;37.390;2023-05-07T01:23:40;5.45;;;1.70;;
72601;SDS011;60644;55.858;37.390;2023-05-07T01:26:06;6.53;;;2.25;;
72601;SDS011;60644;55.858;37.390;2023-05-07T01:28:33;5.80;;;1.90;;
72601;SDS011;60644;55.858;37.390;2023-05-07T01:31:01;7.53;;;2.22;;
72601;SDS011;60644;55.858;37.390;2023-05-07T01:33:27;6.20;;;2.35;;
72601;SDS011;60644;55.858;37.390;2023-05-07T01:35:54;7.13;;;2.30;;
72601;SDS011;60644;55.858;37.390;2023-05-07T01:38:21;5.93;;;1.95;;
72601;SDS011;60644;55.858;37.390;2023-05-07T01:40:47;5.77;;;2.10;;
72601;SDS011;60644;55.858;37.390;2023-05-07T01:43:13;5.82;;;1.88;;
72601;SDS011;60644;55.858;37.390;2023-05-07T01:45:39;8.77;;;2.28;;
72601;SDS011;60644;55.858;37.390;2023-05-07T01:48:06;5.78;;;1.85;;
72601;SDS011;60644;55.858;37.390;2023-05-07T01:50:32;6.53;;;2.07;;
72601;SDS011;60644;55.858;37.390;2023-05-07T01:52:57;7.32;;;2.85;;
72601;SDS011;60644;55.858;37.390;2023-05-07T01:55:23;6.35;;;1.75;;
72601;SDS011;60644;55.858;37.390;2023-05-07T01:57:49;6.10;;;1.83;;
72601;SDS011;60644;55.858;37.390;2023-05-07T02:00:16;7.65;;;2.08;;
72601;SDS011;60644;55.858;37.390;2023-05-07T02:02:44;6.30;;;2.60;;
72601;SDS011;60644;55.858;37.390;2023-05-07T02:05:23;5.53;;;1.67;;
72601;SDS011;60644;55.858;37.390;2023-05-07T02:07:56;5.90;;;1.95;;
72601;SDS011;60644;55.858;37.390;2023-05-07T02:10:23;6.77;;;1.83;;
72601;SDS011;60644;55.858;37.390;2023-05-07T02:12:48;7.13;;;2.10;;
72601;SDS011;60644;55.858;37.390;2023-05-07T02:15:14;5.93;;;2.08;;
72601;SDS011;60644;55.858;37.390;2023-05-07T02:17:57;6.60;;;2.17;;
72601;SDS011;60644;55.858;37.390;2023-05-07T02:20:24;8.10;;;1.88;;
72601;SDS011;60644;55.858;37.390;2023-05-07T02:23:10;6.25;;;1.98;;
72601;SDS011;60644;55.858;37.390;2023-05-07T02:25:36;6.07;;;1.90;;
72601;SDS011;60644;55.858;37.390;2023-05-07T02:28:02;6.68;;;1.83;;
72601;SDS011;60644;55.858;37.390;2023-05-07T02:30:39;7.40;;;1.90;;
72601;SDS011;60644;55.858;37.390;2023-05-07T02:33:05;6.75;;;1.90;;
72601;SDS011;60644;55.858;37.390;2023-05-07T02:35:34;6.35;;;2.00;;
72601;SDS011;60644;55.858;37.390;2023-05-07T02:38:00;9.10;;;1.70;;
72601;SDS011;60644;55.858;37.390;2023-05-07T02:40:26;6.13;;;2.03;;
72601;SDS011;60644;55.858;37.390;2023-05-07T02:42:52;6.75;;;1.90;;
72601;SDS011;60644;55.858;37.390;2023-05-07T02:45:18;6.20;;;1.83;;
72601;SDS011;60644;55.858;37.390;2023-05-07T02:47:44;6.82;;;1.60;;
72601;SDS011;60644;55.858;37.390;2023-05-07T02:50:10;5.70;;;1.95;;
72601;SDS011;60644;55.858;37.390;2023-05-07T02:52:36;6.87;;;1.90;;
72601;SDS011;60644;55.858;37.390;2023-05-07T02:55:02;5.88;;;1.70;;
72601;SDS011;60644;55.858;37.390;2023-05-07T02:57:30;7.47;;;2.00;;
72601;SDS011;60644;55.858;37.390;2023-05-07T02:59:57;6.43;;;1.80;;
72601;SDS011;60644;55.858;37.390;2023-05-07T03:02:23;5.80;;;2.00;;
72601;SDS011;60644;55.858;37.390;2023-05-07T03:04:49;8.15;;;1.40;;
72601;SDS011;60644;55.858;37.390;2023-05-07T03:07:14;6.80;;;1.70;;
72601;SDS011;60644;55.858;37.390;2023-05-07T03:09:40;6.53;;;1.60;;
72601;SDS011;60644;55.858;37.390;2023-05-07T03:12:06;6.07;;;1.60;;
72601;SDS011;60644;55.858;37.390;2023-05-07T03:14:32;5.53;;;1.85;;
72601;SDS011;60644;55.858;37.390;2023-05-07T03:16:58;6.82;;;1.98;;
72601;SDS011;60644;55.858;37.390;2023-05-07T03:19:24;6.30;;;2.00;;
72601;SDS011;60644;55.858;37.390;2023-05-07T03:21:50;6.38;;;1.58;;
72601;SDS011;60644;55.858;37.390;2023-05-07T03:24:16;6.05;;;1.70;;
72601;SDS011;60644;55.858;37.390;2023-05-07T03:26:42;7.72;;;2.20;;
72601;SDS011;60644;55.858;37.390;2023-05-07T03:29:08;7.20;;;2.00;;
72601;SDS011;60644;55.858;37.390;2023-05-07T03:31:33;5.88;;;1.83;;
72601;SDS011;60644;55.858;37.390;2023-05-07T03:34:07;5.47;;;1.70;;
72601;SDS011;60644;55.858;37.390;2023-05-07T03:36:33;6.95;;;2.00;;
72601;SDS011;60644;55.858;37.390;2023-05-07T03:38:59;6.65;;;1.55;;
72601;SDS011;60644;55.858;37.390;2023-05-07T03:41:33;5.68;;;1.80;;
72601;SDS011;60644;55.858;37.390;2023-05-07T03:44:00;6.67;;;1.70;;
72601;SDS011;60644;55.858;37.390;2023-05-07T03:46:28;4.90;;;1.25;;
72601;SDS011;60644;55.858;37.390;2023-05-07T03:48:54;4.97;;;1.33;;
72601;SDS011;60644;55.858;37.390;2023-05-07T03:51:20;6.75;;;1.90;;
72601;SDS011;60644;55.858;37.390;2023-05-07T03:53:46;5.17;;;1.40;;
72601;SDS011;60644;55.858;37.390;2023-05-07T03:56:14;4.55;;;1.17;;
72601;SDS011;60644;55.858;37.390;2023-05-07T03:58:40;5.60;;;1.10;;
72601;SDS011;60644;55.858;37.390;2023-05-07T04:01:09;5.37;;;1.40;;
72601;SDS011;60644;55.858;37.390;2023-05-07T04:03:34;6.30;;;1.40;;
72601;SDS011;60644;55.858;37.390;2023-05-07T04:06:00;4.65;;;1.35;;
72601;SDS011;60644;55.858;37.390;2023-05-07T04:08:26;5.43;;;1.13;;
72601;SDS011;60644;55.858;37.390;2023-05-07T04:10:54;5.57;;;1.27;;
72601;SDS011;60644;55.858;37.390;2023-05-07T04:13:20;4.20;;;1.00;;
72601;SDS011;60644;55.858;37.390;2023-05-07T04:15:46;4.83;;;1.30;;
72601;SDS011;60644;55.858;37.390;2023-05-07T04:18:15;4.75;;;1.10;;
72601;SDS011;60644;55.858;37.390;2023-05-07T04:20:44;5.18;;;1.48;;
72601;SDS011;60644;55.858;37.390;2023-05-07T04:23:12;4.00;;;1.27;;
72601;SDS011;60644;55.858;37.390;2023-05-07T04:25:38;4.13;;;0.87;;
72601;SDS011;60644;55.858;37.390;2023-05-07T04:28:15;4.50;;;1.00;;
72601;SDS011;60644;55.858;37.390;2023-05-07T04:30:42;3.63;;;0.80;;
72601;SDS011;60644;55.858;37.390;2023-05-07T04:33:08;5.07;;;1.17;;
72601;SDS011;60644;55.858;37.390;2023-05-07T04:35:35;4.85;;;1.15;;
72601;SDS011;60644;55.858;37.390;2023-05-07T04:38:03;3.03;;;0.70;;
72601;SDS011;60644;55.858;37.390;2023-05-07T04:40:29;3.03;;;0.70;;
72601;SDS011;60644;55.858;37.390;2023-05-07T04:42:55;3.65;;;0.90;;
72601;SDS011;60644;55.858;37.390;2023-05-07T04:45:22;3.83;;;0.70;;
72601;SDS011;60644;55.858;37.390;2023-05-07T04:47:49;4.97;;;1.30;;
72601;SDS011;60644;55.858;37.390;2023-05-07T04:50:15;4.18;;;0.70;;
72601;SDS011;60644;55.858;37.390;2023-05-07T04:52:43;3.58;;;0.80;;
72601;SDS011;60644;55.858;37.390;2023-05-07T04:55:08;3.47;;;0.73;;
72601;SDS011;60644;55.858;37.390;2023-05-07T04:57:37;5.00;;;0.90;;
72601;SDS011;60644;55.858;37.390;2023-05-07T05:00:06;4.75;;;0.80;;
72601;SDS011;60644;55.858;37.390;2023-05-07T05:02:35;4.30;;;0.80;;
72601;SDS011;60644;55.858;37.390;2023-05-07T05:05:01;3.57;;;0.40;;
72601;SDS011;60644;55.858;37.390;2023-05-07T05:07:31;3.80;;;0.50;;
72601;SDS011;60644;55.858;37.390;2023-05-07T05:09:57;3.50;;;0.70;;
72601;SDS011;60644;55.858;37.390;2023-05-07T05:12:23;3.25;;;0.73;;
72601;SDS011;60644;55.858;37.390;2023-05-07T05:14:49;5.03;;;0.70;;
72601;SDS011;60644;55.858;37.390;2023-05-07T05:17:15;3.67;;;0.60;;
72601;SDS011;60644;55.858;37.390;2023-05-07T05:19:41;3.87;;;0.70;;
72601;SDS011;60644;55.858;37.390;2023-05-07T05:22:06;3.90;;;0.65;;
72601;SDS011;60644;55.858;37.390;2023-05-07T05:24:32;4.53;;;0.70;;
72601;SDS011;60644;55.858;37.390;2023-05-07T05:26:58;3.43;;;0.60;;
72601;SDS011;60644;55.858;37.390;2023-05-07T05:29:28;3.00;;;0.50;;
72601;SDS011;60644;55.858;37.390;2023-05-07T05:31:54;3.70;;;0.80;;
72601;SDS011;60644;55.858;37.390;2023-05-07T05:34:20;4.03;;;0.80;;
72601;SDS011;60644;55.858;37.390;2023-05-07T05:36:47;3.33;;;0.60;;
72601;SDS011;60644;55.858;37.390;2023-05-07T05:39:14;4.85;;;0.68;;
72601;SDS011;60644;55.858;37.390;2023-05-07T05:41:39;4.07;;;0.80;;
72601;SDS011;60644;55.858;37.390;2023-05-07T05:44:06;4.13;;;0.77;;
72601;SDS011;60644;55.858;37.390;2023-05-07T05:46:32;4.22;;;1.05;;
72601;SDS011;60644;55.858;37.390;2023-05-07T05:48:58;2.60;;;0.60;;
72601;SDS011;60644;55.858;37.390;2023-05-07T05:51:23;3.87;;;0.70;;
72601;SDS011;60644;55.858;37.390;2023-05-07T05:53:49;7.57;;;0.70;;
72601;SDS011;60644;55.858;37.390;2023-05-07T05:56:15;3.27;;;0.47;;
72601;SDS011;60644;55.858;37.390;2023-05-07T05:58:41;5.05;;;0.63;;
72601;SDS011;60644;55.858;37.390;2023-05-07T06:01:07;3.08;;;0.52;;
72601;SDS011;60644;55.858;37.390;2023-05-07T06:03:35;4.15;;;0.77;;
72601;SDS011;60644;55.858;37.390;2023-05-07T06:06:05;2.45;;;0.52;;
72601;SDS011;60644;55.858;37.390;2023-05-07T06:08:31;3.28;;;0.47;;
72601;SDS011;60644;55.858;37.390;2023-05-07T06:10:58;3.72;;;0.60;;
72601;SDS011;60644;55.858;37.390;2023-05-07T06:13:24;2.88;;;0.50;;
72601;SDS011;60644;55.858;37.390;2023-05-07T06:15:50;3.50;;;0.60;;
72601;SDS011;60644;55.858;37.390;2023-05-07T06:18:16;5.25;;;0.52;;
72601;SDS011;60644;55.858;37.390;2023-05-07T06:20:42;1.98;;;0.30;;
72601;SDS011;60644;55.858;37.390;2023-05-07T06:23:15;3.00;;;0.70;;
72601;SDS011;60644;55.858;37.390;2023-05-07T06:25:42;2.43;;;0.47;;
72601;SDS011;60644;55.858;37.390;2023-05-07T06:28:07;3.88;;;0.60;;
72601;SDS011;60644;55.858;37.390;2023-05-07T06:30:38;3.28;;;0.50;;
72601;SDS011;60644;55.858;37.390;2023-05-07T06:33:04;3.10;;;0.50;;
72601;SDS011;60644;55.858;37.390;2023-05-07T06:35:30;3.53;;;0.60;;
72601;SDS011;60644;55.858;37.390;2023-05-07T06:37:56;3.97;;;0.97;;
72601;SDS011;60644;55.858;37.390;2023-05-07T06:40:24;3.25;;;0.60;;
72601;SDS011;60644;55.858;37.390;2023-05-07T06:42:50;3.70;;;0.60;;
72601;SDS011;60644;55.858;37.390;2023-05-07T06:45:29;3.38;;;0.70;;
72601;SDS011;60644;55.858;37.390;2023-05-07T06:47:56;2.50;;;0.60;;
72601;SDS011;60644;55.858;37.390;2023-05-07T06:50:23;2.80;;;0.57;;
72601;SDS011;60644;55.858;37.390;2023-05-07T06:52:53;4.07;;;0.68;;
72601;SDS011;60644;55.858;37.390;2023-05-07T06:55:19;2.95;;;0.45;;
72601;SDS011;60644;55.858;37.390;2023-05-07T06:57:45;4.25;;;0.50;;
72601;SDS011;60644;55.858;37.390;2023-05-07T07:00:12;2.67;;;0.30;;
72601;SDS011;60644;55.858;37.390;2023-05-07T07:02:51;1.95;;;0.40;;
72601;SDS011;60644;55.858;37.390;2023-05-07T07:05:20;2.05;;;0.47;;
72601;SDS011;60644;55.858;37.390;2023-05-07T07:07:46;4.20;;;0.40;;
72601;SDS011;60644;55.858;37.390;2023-05-07T07:10:19;1.52;;;0.30;;
72601;SDS011;60644;55.858;37.390;2023-05-07T07:12:46;4.43;;;0.57;;
72601;SDS011;60644;55.858;37.390;2023-05-07T07:15:13;2.35;;;0.50;;
72601;SDS011;60644;55.858;37.390;2023-05-07T07:17:40;2.15;;;0.40;;
72601;SDS011;60644;55.858;37.390;2023-05-07T07:20:06;3.63;;;0.40;;
72601;SDS011;60644;55.858;37.390;2023-05-07T07:22:32;3.20;;;0.40;;
72601;SDS011;60644;55.858;37.390;2023-05-07T07:24:58;3.17;;;0.40;;
72601;SDS011;60644;55.858;37.390;2023-05-07T07:27:24;2.67;;;0.50;;
72601;SDS011;60644;55.858;37.390;2023-05-07T07:29:50;2.33;;;0.40;;
72601;SDS011;60644;55.858;37.390;2023-05-07T07:32:15;2.83;;;0.30;;
72601;SDS011;60644;55.858;37.390;2023-05-07T07:34:42;2.75;;;0.60;;
72601;SDS011;60644;55.858;37.390;2023-05-07T07:37:08;2.67;;;0.32;;
72601;SDS011;60644;55.858;37.390;2023-05-07T07:39:36;2.00;;;0.40;;
72601;SDS011;60644;55.858;37.390;2023-05-07T07:42:03;2.22;;;0.30;;
72601;SDS011;60644;55.858;37.390;2023-05-07T07:44:30;2.63;;;0.30;;
72601;SDS011;60644;55.858;37.390;2023-05-07T07:47:01;1.85;;;0.65;;
72601;SDS011;60644;55.858;37.390;2023-05-07T07:49:28;3.17;;;0.50;;
72601;SDS011;60644;55.858;37.390;2023-05-07T07:51:55;1.30;;;0.20;;
72601;SDS011;60644;55.858;37.390;2023-05-07T07:54:22;1.15;;;0.20;;
72601;SDS011;60644;55.858;37.390;2023-05-07T07:56:48;2.30;;;0.20;;
72601;SDS011;60644;55.858;37.390;2023-05-07T07:59:14;3.80;;;0.40;;
72601;SDS011;60644;55.858;37.390;2023-05-07T08:01:43;1.25;;;0.20;;
72601;SDS011;60644;55.858;37.390;2023-05-07T08:04:09;2.72;;;0.38;;
72601;SDS011;60644;55.858;37.390;2023-05-07T08:06:38;2.15;;;0.43;;
72601;SDS011;60644;55.858;37.390;2023-05-07T08:09:05;3.67;;;0.30;;
72601;SDS011;60644;55.858;37.390;2023-05-07T08:11:32;2.30;;;0.50;;
72601;SDS011;60644;55.858;37.390;2023-05-07T08:13:58;3.00;;;0.43;;
72601;SDS011;60644;55.858;37.390;2023-05-07T08:16:24;2.47;;;0.30;;
72601;SDS011;60644;55.858;37.390;2023-05-07T08:18:51;2.40;;;0.30;;
72601;SDS011;60644;55.858;37.390;2023-05-07T08:21:17;5.68;;;0.43;;
72601;SDS011;60644;55.858;37.390;2023-05-07T08:23:43;5.40;;;0.40;;
72601;SDS011;60644;55.858;37.390;2023-05-07T08:26:08;2.33;;;0.40;;
72601;SDS011;60644;55.858;37.390;2023-05-07T08:28:35;2.78;;;0.40;;
72601;SDS011;60644;55.858;37.390;2023-05-07T08:31:01;2.87;;;0.40;;
72601;SDS011;60644;55.858;37.390;2023-05-07T08:33:30;2.83;;;0.30;;
72601;SDS011;60644;55.858;37.390;2023-05-07T08:35:56;1.67;;;0.30;;
72601;SDS011;60644;55.858;37.390;2023-05-07T08:38:22;1.67;;;0.20;;
72601;SDS011;60644;55.858;37.390;2023-05-07T08:40:48;3.75;;;0.60;;
72601;SDS011;60644;55.858;37.390;2023-05-07T08:43:17;1.70;;;0.20;;
72601;SDS011;60644;55.858;37.390;2023-05-07T08:45:44;3.30;;;0.50;;
72601;SDS011;60644;55.858;37.390;2023-05-07T08:48:15;2.35;;;0.30;;
72601;SDS011;60644;55.858;37.390;2023-05-07T08:50:44;2.17;;;0.40;;
72601;SDS011;60644;55.858;37.390;2023-05-07T08:53:10;4.60;;;0.52;;
72601;SDS011;60644;55.858;37.390;2023-05-07T08:55:37;2.42;;;0.30;;
72601;SDS011;60644;55.858;37.390;2023-05-07T08:58:03;2.03;;;0.45;;
72601;SDS011;60644;55.858;37.390;2023-05-07T09:00:30;1.27;;;0.10;;
72601;SDS011;60644;55.858;37.390;2023-05-07T09:02:57;1.85;;;0.30;;
72601;SDS011;60644;55.858;37.390;2023-05-07T09:05:23;1.87;;;0.30;;
72601;SDS011;60644;55.858;37.390;2023-05-07T09:07:49;2.45;;;0.30;;
72601;SDS011;60644;55.858;37.390;2023-05-07T09:10:16;1.98;;;0.30;;
72601;SDS011;60644;55.858;37.390;2023-05-07T09:12:46;3.47;;;0.50;;
72601;SDS011;60644;55.858;37.390;2023-05-07T09:15:13;2.58;;;0.40;;
72601;SDS011;60644;55.858;37.390;2023-05-07T09:17:43;2.90;;;0.50;;
72601;SDS011;60644;55.858;37.390;2023-05-07T09:20:10;3.55;;;0.30;;
72601;SDS011;60644;55.858;37.390;2023-05-07T09:22:36;2.53;;;0.30;;
72601;SDS011;60644;55.858;37.390;2023-05-07T09:25:06;2.35;;;0.40;;
72601;SDS011;60644;55.858;37.390;2023-05-07T09:27:32;3.60;;;0.70;;
72601;SDS011;60644;55.858;37.390;2023-05-07T09:30:11;2.03;;;0.33;;
72601;SDS011;60644;55.858;37.390;2023-05-07T09:35:29;3.90;;;0.70;;
72601;SDS011;60644;55.858;37.390;2023-05-07T09:38:00;3.05;;;0.50;;
72601;SDS011;60644;55.858;37.390;2023-05-07T09:40:28;2.50;;;0.40;;
72601;SDS011;60644;55.858;37.390;2023-05-07T09:43:07;4.30;;;1.10;;
72601;SDS011;60644;55.858;37.390;2023-05-07T09:45:34;2.92;;;0.40;;
72601;SDS011;60644;55.858;37.390;2023-05-07T09:48:01;2.78;;;0.75;;
72601;SDS011;60644;55.858;37.390;2023-05-07T09:50:32;2.85;;;0.40;;
72601;SDS011;60644;55.858;37.390;2023-05-07T09:53:03;2.28;;;0.30;;
72601;SDS011;60644;55.858;37.390;2023-05-07T09:55:29;2.43;;;0.50;;
72601;SDS011;60644;55.858;37.390;2023-05-07T09:57:56;1.70;;;0.30;;
72601;SDS011;60644;55.858;37.390;2023-05-07T10:00:25;2.80;;;0.30;;
72601;SDS011;60644;55.858;37.390;2023-05-07T10:03:00;3.28;;;0.30;;
72601;SDS011;60644;55.858;37.390;2023-05-07T10:05:36;2.00;;;0.40;;
72601;SDS011;60644;55.858;37.390;2023-05-07T10:08:02;2.37;;;0.40;;
72601;SDS011;60644;55.858;37.390;2023-05-07T10:10:29;2.53;;;0.40;;
72601;SDS011;60644;55.858;37.390;2023-05-07T10:12:55;2.20;;;0.55;;
72601;SDS011;60644;55.858;37.390;2023-05-07T10:15:28;5.47;;;0.55;;
72601;SDS011;60644;55.858;37.390;2023-05-07T10:17:56;2.40;;;0.30;;
72601;SDS011;60644;55.858;37.390;2023-05-07T10:20:23;2.13;;;0.30;;
72601;SDS011;60644;55.858;37.390;2023-05-07T10:22:50;2.08;;;0.40;;
72601;SDS011;60644;55.858;37.390;2023-05-07T10:25:24;2.60;;;0.40;;
72601;SDS011;60644;55.858;37.390;2023-05-07T10:27:52;3.35;;;0.40;;
72601;SDS011;60644;55.858;37.390;2023-05-07T10:35:42;2.20;;;0.30;;
72601;SDS011;60644;55.858;37.390;2023-05-07T10:38:09;2.25;;;0.40;;
72601;SDS011;60644;55.858;37.390;2023-05-07T10:40:40;2.28;;;0.35;;
72601;SDS011;60644;55.858;37.390;2023-05-07T10:43:07;2.88;;;0.52;;
72601;SDS011;60644;55.858;37.390;2023-05-07T10:48:31;3.00;;;0.38;;
72601;SDS011;60644;55.858;37.390;2023-05-07T10:51:19;3.65;;;0.45;;
72601;SDS011;60644;55.858;37.390;2023-05-07T10:53:47;2.53;;;0.40;;
72601;SDS011;60644;55.858;37.390;2023-05-07T10:58:53;2.07;;;0.33;;
72601;SDS011;60644;55.858;37.390;2023-05-07T11:04:14;2.83;;;0.60;;
72601;SDS011;60644;55.858;37.390;2023-05-07T11:12:14;1.97;;;0.30;;
72601;SDS011;60644;55.858;37.390;2023-05-07T11:14:49;2.17;;;0.30;;
72601;SDS011;60644;55.858;37.390;2023-05-07T11:17:26;2.65;;;0.40;;
72601;SDS011;60644;55.858;37.390;2023-05-07T11:20:01;7.30;;;1.20;;
72601;SDS011;60644;55.858;37.390;2023-05-07T11:22:42;6.80;;;1.08;;
72601;SDS011;60644;55.858;37.390;2023-05-07T11:25:22;4.93;;;0.67;;
72601;SDS011;60644;55.858;37.390;2023-05-07T11:27:55;4.20;;;0.98;;
72601;SDS011;60644;55.858;37.390;2023-05-07T11:30:21;3.90;;;1.30;;
72601;SDS011;60644;55.858;37.390;2023-05-07T11:32:51;2.25;;;0.52;;
72601;SDS011;60644;55.858;37.390;2023-05-07T11:35:17;3.00;;;0.30;;
72601;SDS011;60644;55.858;37.390;2023-05-07T11:37:45;5.23;;;0.43;;
72601;SDS011;60644;55.858;37.390;2023-05-07T11:40:12;3.75;;;0.40;;
72601;SDS011;60644;55.858;37.390;2023-05-07T11:42:39;1.83;;;0.30;;
72601;SDS011;60644;55.858;37.390;2023-05-07T11:45:06;2.45;;;0.32;;
72601;SDS011;60644;55.858;37.390;2023-05-07T11:47:33;2.10;;;0.40;;
72601;SDS011;60644;55.858;37.390;2023-05-07T11:50:07;2.33;;;0.43;;
72601;SDS011;60644;55.858;37.390;2023-05-07T11:52:34;3.10;;;0.40;;
72601;SDS011;60644;55.858;37.390;2023-05-07T11:55:01;2.65;;;0.40;;
72601;SDS011;60644;55.858;37.390;2023-05-07T11:57:32;3.00;;;0.40;;
72601;SDS011;60644;55.858;37.390;2023-05-07T11:59:58;4.47;;;1.05;;
72601;SDS011;60644;55.858;37.390;2023-05-07T12:02:24;2.83;;;0.37;;
72601;SDS011;60644;55.858;37.390;2023-05-07T12:04:50;3.42;;;0.80;;
72601;SDS011;60644;55.858;37.390;2023-05-07T12:07:16;5.50;;;0.77;;
72601;SDS011;60644;55.858;37.390;2023-05-07T12:09:44;8.65;;;1.00;;
72601;SDS011;60644;55.858;37.390;2023-05-07T12:12:10;4.40;;;0.97;;
72601;SDS011;60644;55.858;37.390;2023-05-07T12:14:39;2.55;;;0.50;;
72601;SDS011;60644;55.858;37.390;2023-05-07T12:17:05;2.55;;;0.50;;
72601;SDS011;60644;55.858;37.390;2023-05-07T12:19:31;2.92;;;0.60;;
72601;SDS011;60644;55.858;37.390;2023-05-07T12:21:57;5.77;;;1.00;;
72601;SDS011;60644;55.858;37.390;2023-05-07T12:24:23;4.47;;;0.68;;
72601;SDS011;60644;55.858;37.390;2023-05-07T12:26:48;4.57;;;0.70;;
72601;SDS011;60644;55.858;37.390;2023-05-07T12:29:14;3.75;;;0.70;;
72601;SDS011;60644;55.858;37.390;2023-05-07T12:31:41;3.00;;;0.40;;
72601;SDS011;60644;55.858;37.390;2023-05-07T12:34:07;2.65;;;0.50;;
72601;SDS011;60644;55.858;37.390;2023-05-07T12:36:36;2.90;;;0.70;;
72601;SDS011;60644;55.858;37.390;2023-05-07T12:39:03;2.60;;;0.52;;
72601;SDS011;60644;55.858;37.390;2023-05-07T12:41:29;3.13;;;0.45;;
72601;SDS011;60644;55.858;37.390;2023-05-07T12:43:56;2.57;;;0.43;;
72601;SDS011;60644;55.858;37.390;2023-05-07T12:46:21;4.38;;;0.70;;
72601;SDS011;60644;55.858;37.390;2023-05-07T12:48:52;3.08;;;0.50;;
72601;SDS011;60644;55.858;37.390;2023-05-07T12:51:18;2.53;;;0.60;;
72601;SDS011;60644;55.858;37.390;2023-05-07T12:53:44;1.85;;;0.30;;
72601;SDS011;60644;55.858;37.390;2023-05-07T12:56:10;2.47;;;0.50;;
72601;SDS011;60644;55.858;37.390;2023-05-07T12:58:36;3.78;;;0.47;;
72601;SDS011;60644;55.858;37.390;2023-05-07T13:01:05;4.80;;;0.60;;
72601;SDS011;60644;55.858;37.390;2023-05-07T13:03:32;2.58;;;0.57;;
72601;SDS011;60644;55.858;37.390;2023-05-07T13:05:59;5.25;;;0.50;;
72601;SDS011;60644;55.858;37.390;2023-05-07T13:08:26;3.03;;;0.50;;
72601;SDS011;60644;55.858;37.390;2023-05-07T13:10:53;2.97;;;0.60;;
72601;SDS011;60644;55.858;37.390;2023-05-07T13:13:22;4.57;;;0.60;;
72601;SDS011;60644;55.858;37.390;2023-05-07T13:15:50;3.47;;;0.60;;
72601;SDS011;60644;55.858;37.390;2023-05-07T13:18:16;3.15;;;0.60;;
72601;SDS011;60644;55.858;37.390;2023-05-07T13:20:42;3.60;;;0.90;;
72601;SDS011;60644;55.858;37.390;2023-05-07T13:23:08;3.53;;;0.90;;
72601;SDS011;60644;55.858;37.390;2023-05-07T13:25:35;2.50;;;0.40;;
72601;SDS011;60644;55.858;37.390;2023-05-07T13:28:01;3.40;;;0.65;;
72601;SDS011;60644;55.858;37.390;2023-05-07T13:30:26;3.37;;;0.73;;
72601;SDS011;60644;55.858;37.390;2023-05-07T13:32:54;3.85;;;0.80;;
72601;SDS011;60644;55.858;37.390;2023-05-07T13:35:20;2.97;;;0.57;;
72601;SDS011;60644;55.858;37.390;2023-05-07T13:37:46;3.40;;;0.60;;
72601;SDS011;60644;55.858;37.390;2023-05-07T13:40:14;3.83;;;0.50;;
72601;SDS011;60644;55.858;37.390;2023-05-07T13:42:43;4.20;;;0.50;;
72601;SDS011;60644;55.858;37.390;2023-05-07T13:45:08;3.93;;;0.70;;
72601;SDS011;60644;55.858;37.390;2023-05-07T13:47:34;3.22;;;0.60;;
72601;SDS011;60644;55.858;37.390;2023-05-07T13:50:02;2.97;;;0.70;;
72601;SDS011;60644;55.858;37.390;2023-05-07T13:52:30;4.43;;;0.90;;
72601;SDS011;60644;55.858;37.390;2023-05-07T13:54:55;1.90;;;0.50;;
72601;SDS011;60644;55.858;37.390;2023-05-07T13:57:21;3.70;;;0.52;;
72601;SDS011;60644;55.858;37.390;2023-05-07T13:59:47;3.20;;;0.60;;
72601;SDS011;60644;55.858;37.390;2023-05-07T14:02:13;4.10;;;0.90;;
72601;SDS011;60644;55.858;37.390;2023-05-07T14:04:39;3.87;;;0.73;;
72601;SDS011;60644;55.858;37.390;2023-05-07T14:07:04;4.32;;;0.60;;
72601;SDS011;60644;55.858;37.390;2023-05-07T14:09:30;5.00;;;0.93;;
72601;SDS011;60644;55.858;37.390;2023-05-07T14:11:56;4.50;;;1.30;;
72601;SDS011;60644;55.858;37.390;2023-05-07T14:14:22;3.05;;;0.57;;
72601;SDS011;60644;55.858;37.390;2023-05-07T14:16:48;4.03;;;0.65;;
72601;SDS011;60644;55.858;37.390;2023-05-07T14:19:13;4.30;;;0.75;;
72601;SDS011;60644;55.858;37.390;2023-05-07T14:21:39;3.67;;;0.40;;
72601;SDS011;60644;55.858;37.390;2023-05-07T14:24:06;3.65;;;0.70;;
72601;SDS011;60644;55.858;37.390;2023-05-07T14:26:32;2.88;;;0.50;;
72601;SDS011;60644;55.858;37.390;2023-05-07T14:28:57;3.63;;;0.80;;
72601;SDS011;60644;55.858;37.390;2023-05-07T14:31:24;3.07;;;0.60;;
72601;SDS011;60644;55.858;37.390;2023-05-07T14:33:49;3.22;;;0.55;;
72601;SDS011;60644;55.858;37.390;2023-05-07T14:36:16;3.85;;;0.80;;
72601;SDS011;60644;55.858;37.390;2023-05-07T14:38:42;3.40;;;0.73;;
72601;SDS011;60644;55.858;37.390;2023-05-07T14:41:08;3.88;;;0.90;;
72601;SDS011;60644;55.858;37.390;2023-05-07T14:43:34;3.55;;;0.70;;
72601;SDS011;60644;55.858;37.390;2023-05-07T14:45:59;5.43;;;0.80;;
72601;SDS011;60644;55.858;37.390;2023-05-07T14:48:25;5.30;;;0.90;;
72601;SDS011;60644;55.858;37.390;2023-05-07T14:50:50;3.92;;;0.85;;
72601;SDS011;60644;55.858;37.390;2023-05-07T14:53:16;5.60;;;2.60;;
72601;SDS011;60644;55.858;37.390;2023-05-07T14:55:42;4.97;;;1.30;;